Time;durP1;ratioP1;P1;durP2;ratioP2;P2;SDS_P1;SDS_P2;PMS_P1;PMS_P2;Temp;Humidity;BMP_temperature;BMP_pressure;BME280_temperature;BME280_humidity;BME280_pressure;Samples;Min_cycle;Max_cycle;Signal;HPM_P1;HPM_P2
2022/01/23 00:02:10;;;;;;;8.25;7.00;;;;;;;1.12;100.00;97380.22;5071163;28;24450;-76
2022/01/23 00:04:37;;;;;;;7.95;7.15;;;;;;;1.15;100.00;97382.78;5071265;28;24430;-77
2022/01/23 00:07:08;;;;;;;7.30;6.60;;;;;;;1.19;100.00;97379.38;5071167;28;24411;-76
2022/01/23 00:09:36;;;;;;;7.82;7.00;;;;;;;1.30;100.00;97378.50;5070891;28;25001;-76
2022/01/23 00:12:07;;;;;;;7.40;6.60;;;;;;;1.29;100.00;97372.53;5070367;28;24422;-76
2022/01/23 00:17:20;;;;;;;7.43;6.72;;;;;;;1.42;100.00;97379.34;5070705;28;24410;-76
2022/01/23 00:19:48;;;;;;;7.97;7.03;;;;;;;1.33;100.00;97376.78;5070887;28;24459;-76
2022/01/23 00:22:17;;;;;;;8.43;6.55;;;;;;;1.27;100.00;97371.69;5070536;28;24443;-76
2022/01/23 00:30:30;;;;;;;10.10;7.18;;;;;;;1.23;100.00;97362.34;5049271;28;24503;-76
2022/01/23 00:32:58;;;;;;;7.65;6.70;;;;;;;1.21;100.00;97366.59;5091051;28;24807;-76
2022/01/23 00:35:25;;;;;;;7.97;7.18;;;;;;;1.18;100.00;97352.13;5091050;28;24442;-76
2022/01/23 00:37:53;;;;;;;8.68;7.70;;;;;;;1.23;100.00;97359.78;5090722;28;24430;-76
2022/01/23 00:40:19;;;;;;;9.60;8.00;;;;;;;1.24;100.00;97358.94;5090643;28;24422;-77
2022/01/23 00:42:46;;;;;;;9.93;7.68;;;;;;;1.26;100.00;97361.47;5090928;28;24418;-76
2022/01/23 00:45:29;;;;;;;10.40;7.33;;;;;;;1.24;100.00;97368.31;5090689;28;24418;-76
2022/01/23 00:48:00;;;;;;;8.20;7.40;;;;;;;1.25;100.00;97368.28;5090659;28;24439;-76
2022/01/23 00:50:27;;;;;;;7.88;7.18;;;;;;;1.25;100.00;97360.63;5090661;28;24959;-76
2022/01/23 00:52:55;;;;;;;7.85;7.05;;;;;;;1.28;100.00;97363.19;5090712;28;24414;-76
2022/01/23 00:55:22;;;;;;;9.18;7.20;;;;;;;1.32;100.00;97364.88;5090886;28;24418;-76
2022/01/23 00:57:48;;;;;;;10.52;7.43;;;;;;;1.30;100.00;97368.28;5090269;28;25001;-76
2022/01/23 01:00:15;;;;;;;8.02;7.15;;;;;;;1.25;100.00;97368.28;5086154;28;24449;-76
2022/01/23 01:02:42;;;;;;;9.00;7.43;;;;;;;1.25;100.00;97368.28;5070131;28;24450;-76
2022/01/23 01:05:10;;;;;;;12.50;7.80;;;;;;;1.28;100.00;97373.41;5089071;28;24512;-76
2022/01/23 01:07:36;;;;;;;9.05;7.03;;;;;;;1.25;100.00;97368.28;5090766;28;24476;-77
2022/01/23 01:10:10;;;;;;;8.93;7.95;;;;;;;1.11;100.00;97367.44;5090396;28;24555;-76
2022/01/23 01:12:40;;;;;;;8.25;7.55;;;;;;;1.17;100.00;97375.09;5090542;28;24426;-76
2022/01/23 01:31:37;;;;;;;8.40;7.60;;;;;;;1.20;100.00;97355.53;5094378;28;24442;-77
2022/01/23 01:34:08;;;;;;;10.30;8.63;;;;;;;1.06;100.00;97352.13;5094341;28;24445;-77
2022/01/23 01:36:44;;;;;;;9.63;8.55;;;;;;;1.07;100.00;97353.81;5093908;28;25232;-77
2022/01/23 01:39:11;;;;;;;9.73;7.87;;;;;;;1.13;100.00;97358.94;5094121;28;24863;-77
2022/01/23 01:41:41;;;;;;;8.60;7.80;;;;;;;1.18;100.00;97352.13;5093758;28;24454;-77
2022/01/23 01:44:08;;;;;;;9.10;8.20;;;;;;;1.19;100.00;97353.84;5093941;28;24966;-77
2022/01/23 01:46:34;;;;;;;10.20;9.10;;;;;;;1.15;100.00;97353.81;5093972;28;24417;-76
2022/01/23 01:49:01;;;;;;;10.95;8.57;;;;;;;1.16;100.00;97364.03;5094152;28;24418;-77
2022/01/23 01:51:32;;;;;;;9.38;8.45;;;;;;;1.19;100.00;97364.06;5094146;28;24418;-77
2022/01/23 01:54:05;;;;;;;9.55;8.55;;;;;;;1.24;100.00;97364.03;5093808;28;24441;-77
2022/01/23 01:56:39;;;;;;;9.00;8.10;;;;;;;1.24;100.00;97355.53;5093759;28;24475;-77
2022/01/23 01:59:18;;;;;;;9.32;8.27;;;;;;;1.27;100.00;97365.75;5093941;28;24479;-77
2022/01/23 02:10:00;;;;;;;8.43;6.50;;;;;;;1.26;100.00;97358.91;5093679;28;24390;-77
2022/01/23 02:13:01;;;;;;;10.75;7.13;;;;;;;1.15;100.00;97369.13;5093424;28;24421;-76
2022/01/23 02:16:00;;;;;;;9.10;6.53;;;;;;;1.10;100.00;97355.53;5093791;28;24452;-76
2022/01/23 02:22:24;;;;;;;8.18;7.38;;;;;;;1.23;100.00;97361.50;5093295;28;25168;-76
2022/01/23 02:24:21;;;;;;;8.73;7.78;;;;;;;1.02;100.00;97347.88;5095746;28;24433;-78
2022/01/23 02:51:43;;;;;;;9.23;8.25;;;;;;;0.97;100.00;97329.19;5092846;28;24425;-76
2022/01/23 02:54:39;;;;;;;8.52;7.63;;;;;;;0.94;100.00;97327.47;5093612;28;24461;-78
2022/01/23 02:57:07;;;;;;;9.70;8.45;;;;;;;0.97;100.00;97324.09;5094644;28;24433;-77
2022/01/23 02:59:36;;;;;;;9.25;8.35;;;;;;;1.01;100.00;97324.94;5093438;28;24456;-76
2022/01/23 03:02:11;;;;;;;8.60;7.70;;;;;;;1.08;100.00;97318.97;5092694;28;24542;-76
2022/01/23 03:04:47;;;;;;;11.55;8.95;;;;;;;1.13;100.00;97322.38;5093126;28;24425;-76
2022/01/23 03:07:37;;;;;;;10.07;9.07;;;;;;;1.16;100.00;97318.13;5092380;28;24838;-76
2022/01/23 03:10:10;;;;;;;14.20;11.30;;;;;;;1.14;100.00;97314.69;5092694;28;24430;-76
2022/01/23 03:15:28;;;;;;;15.45;11.50;;;;;;;1.17;100.00;97316.41;5092280;28;24382;-76
2022/01/23 03:26:28;;;;;;;8.77;6.40;;;;;;;1.35;100.00;97328.31;5091926;28;24578;-76
2022/01/23 03:29:20;;;;;;;8.32;7.10;;;;;;;1.22;100.00;97332.56;5092236;28;24450;-76
2022/01/23 03:32:01;;;;;;;9.10;8.20;;;;;;;1.18;100.00;97346.16;5091909;28;24427;-76
2022/01/23 03:34:28;;;;;;;9.40;8.60;;;;;;;1.15;100.00;97348.72;5092251;28;24429;-76
2022/01/23 03:36:56;;;;;;;10.65;9.55;;;;;;;1.20;100.00;97355.53;5092428;28;24966;-78
2022/01/23 03:39:23;;;;;;;8.93;6.68;;;;;;;1.66;100.00;97358.00;5094598;28;24841;-78
2022/01/23 03:41:51;;;;;;;6.80;6.13;;;;;;;1.33;100.00;97346.16;5094055;28;24454;-77
2022/01/23 03:44:17;;;;;;;6.85;5.88;;;;;;;1.31;100.00;97350.44;5092427;28;24429;-76
2022/01/23 03:47:00;;;;;;;6.30;5.65;;;;;;;1.23;100.00;97353.84;5090892;28;24563;-76
2022/01/23 03:49:32;;;;;;;6.45;5.85;;;;;;;1.35;100.00;97362.31;5091999;28;24422;-76
2022/01/23 03:52:03;;;;;;;7.13;6.38;;;;;;;1.10;100.00;97358.94;5091750;28;24420;-76
2022/01/23 03:54:30;;;;;;;9.02;7.18;;;;;;;0.95;100.00;97349.56;5091522;28;24800;-76
2022/01/23 03:57:00;;;;;;;8.65;7.75;;;;;;;0.96;100.00;97356.41;5091156;28;24410;-76
2022/01/23 03:59:27;;;;;;;8.85;8.05;;;;;;;1.10;100.00;97358.09;5091615;28;24421;-76
2022/01/23 04:01:54;;;;;;;8.15;7.40;;;;;;;1.03;100.00;97362.34;5091293;28;24476;-76
2022/01/23 04:04:39;;;;;;;9.70;8.63;;;;;;;0.94;100.00;97353.00;5093384;28;24433;-78
2022/01/23 04:07:08;;;;;;;9.02;8.13;;;;;;;1.01;100.00;97355.56;5093250;28;24457;-77
2022/01/23 04:09:35;;;;;;;8.77;7.95;;;;;;;1.04;100.00;97355.53;5093773;28;24513;-77
2022/01/23 04:12:04;;;;;;;10.73;8.25;;;;;;;1.11;100.00;97355.56;5093174;28;24458;-79
2022/01/23 04:14:33;;;;;;;8.88;7.50;;;;;;;1.11;100.00;97354.69;5099479;28;24429;-77
2022/01/23 04:17:31;;;;;;;7.97;7.18;;;;;;;1.15;100.00;97364.03;5098772;28;24433;-79
2022/01/23 04:20:07;;;;;;;7.85;7.15;;;;;;;1.11;100.00;97365.75;5094089;28;25014;-77
2022/01/23 04:33:45;;;;;;;9.45;8.48;;;;;;;1.22;100.00;97358.06;5091266;28;24452;-76
2022/01/23 05:00:51;;;;;;;10.70;9.60;;;;;;;0.91;100.00;97342.78;5090524;28;24445;-76
2022/01/23 05:06:09;;;;;;;11.65;8.80;;;;;;;0.95;100.00;97353.84;5074286;28;24510;-76
2022/01/23 05:08:37;;;;;;;11.35;9.82;;;;;;;0.95;100.00;97351.28;5090951;28;24422;-76
2022/01/23 05:11:07;;;;;;;11.68;9.73;;;;;;;0.98;100.00;97356.38;5090401;28;25133;-76
2022/01/23 05:13:34;;;;;;;10.15;9.10;;;;;;;0.99;100.00;97360.63;5090695;28;24410;-75
2022/01/23 05:16:02;;;;;;;10.43;9.32;;;;;;;0.96;100.00;97348.75;5090464;28;24425;-76
2022/01/23 05:18:29;;;;;;;11.50;9.80;;;;;;;0.96;100.00;97352.97;5092108;28;24448;-78
2022/01/23 05:21:06;;;;;;;11.75;9.82;;;;;;;1.01;100.00;97358.09;5091120;28;24433;-76
2022/01/23 05:23:33;;;;;;;10.33;9.27;;;;;;;1.07;100.00;97345.31;5090438;28;24526;-76
2022/01/23 05:25:59;;;;;;;11.90;10.50;;;;;;;1.00;100.00;97344.47;5090083;28;24429;-76
2022/01/23 05:28:26;;;;;;;11.32;9.75;;;;;;;0.96;100.00;97348.75;5090609;28;24437;-76
2022/01/23 05:30:52;;;;;;;13.57;10.82;;;;;;;0.98;100.00;97351.28;5090208;28;24436;-77
2022/01/23 05:33:20;;;;;;;11.40;10.30;;;;;;;1.05;100.00;97358.09;5090891;28;24804;-78
2022/01/23 05:35:46;;;;;;;12.18;9.38;;;;;;;1.09;100.00;97367.44;5091668;28;24791;-76
2022/01/23 05:38:13;;;;;;;11.32;9.35;;;;;;;1.14;100.00;97364.88;5090018;28;25005;-76
2022/01/23 05:40:40;;;;;;;12.75;9.27;;;;;;;1.15;100.00;97364.91;5090024;28;24437;-76
2022/01/23 05:43:07;;;;;;;9.02;8.13;;;;;;;1.19;100.00;97370.88;5089908;28;24491;-76
2022/01/23 05:45:37;;;;;;;8.40;7.60;;;;;;;1.28;100.00;97380.19;5090459;28;24452;-76
2022/01/23 05:48:04;;;;;;;7.17;6.47;;;;;;;1.38;100.00;97381.91;5090324;28;24483;-76
2022/01/23 05:50:32;;;;;;;7.85;6.57;;;;;;;1.38;100.00;97387.00;5090166;28;24804;-77
2022/01/23 05:52:59;;;;;;;7.55;5.88;;;;;;;1.45;100.00;97386.16;5090156;28;24426;-76
2022/01/23 05:55:25;;;;;;;6.38;5.72;;;;;;;1.38;100.00;97385.31;5090106;28;24475;-76
2022/01/23 05:57:51;;;;;;;7.00;6.38;;;;;;;1.28;100.00;97382.75;5090133;28;24418;-76
2022/01/23 06:00:18;;;;;;;7.72;6.47;;;;;;;1.20;100.00;97375.94;5090171;28;24418;-77
2022/01/23 06:02:44;;;;;;;10.23;8.02;;;;;;;1.14;100.00;97368.28;5089998;28;24442;-76
2022/01/23 06:05:11;;;;;;;10.07;9.02;;;;;;;1.13;100.00;97368.31;5090135;28;24426;-76
2022/01/23 06:07:40;;;;;;;12.32;11.02;;;;;;;1.14;100.00;97373.38;5089902;28;24450;-76
2022/01/23 06:10:07;;;;;;;11.35;10.05;;;;;;;1.18;100.00;97381.91;5093035;28;24456;-77
2022/01/23 06:12:34;;;;;;;13.68;10.63;;;;;;;1.23;100.00;97381.91;5093703;28;24787;-77
2022/01/23 06:15:00;;;;;;;14.00;11.15;;;;;;;1.21;100.00;97384.44;5093691;28;24487;-76
2022/01/23 06:17:27;;;;;;;18.30;13.18;;;;;;;1.21;100.00;97392.09;5093652;28;24818;-76
2022/01/23 06:19:53;;;;;;;10.93;9.82;;;;;;;1.15;100.00;97392.09;5093449;28;24475;-76
2022/01/23 06:22:20;;;;;;;10.60;9.50;;;;;;;1.13;100.00;97397.22;5094299;28;24446;-78
2022/01/23 06:24:48;;;;;;;10.35;9.35;;;;;;;1.13;100.00;97394.66;5095928;28;24425;-77
2022/01/23 06:27:15;;;;;;;10.18;8.93;;;;;;;1.14;100.00;97388.69;5095291;28;24441;-79
2022/01/23 06:29:44;;;;;;;9.77;8.73;;;;;;;1.16;100.00;97399.78;5095565;28;24462;-79
2022/01/23 06:32:11;;;;;;;8.10;7.22;;;;;;;1.41;100.00;97402.34;5094767;28;24430;-77
2022/01/23 06:34:38;;;;;;;8.80;5.57;;;;;;;1.36;100.00;97399.75;5093222;28;24410;-76
2022/01/23 06:37:05;;;;;;;7.20;6.07;;;;;;;1.27;100.00;97398.94;5092779;28;24826;-76
2022/01/23 06:39:32;;;;;;;10.57;8.27;;;;;;;1.14;100.00;97396.34;5093295;28;24521;-77
2022/01/23 06:41:59;;;;;;;9.02;8.00;;;;;;;1.09;100.00;97403.16;5092588;28;24430;-77
2022/01/23 06:44:27;;;;;;;9.15;7.85;;;;;;;0.99;100.00;97398.91;5092945;28;25012;-76
2022/01/23 06:46:53;;;;;;;9.15;8.23;;;;;;;0.91;100.00;97396.34;5092572;28;24510;-75
2022/01/23 06:49:20;;;;;;;11.63;9.50;;;;;;;0.92;100.00;97407.41;5098152;28;24426;-77
2022/01/23 06:51:47;;;;;;;10.13;9.00;;;;;;;0.95;100.00;97409.97;5098117;28;24429;-77
2022/01/23 06:54:14;;;;;;;10.18;8.77;;;;;;;1.01;100.00;97409.13;5097103;28;24608;-77
2022/01/23 06:56:40;;;;;;;8.93;8.13;;;;;;;1.09;100.00;97408.28;5097015;28;24445;-77
2022/01/23 06:59:08;;;;;;;8.02;7.32;;;;;;;1.11;100.00;97421.03;5097954;28;24467;-76
2022/01/23 07:01:35;;;;;;;8.38;6.90;;;;;;;1.20;100.00;97418.50;5097761;28;24449;-76
2022/01/23 07:04:02;;;;;;;7.10;6.40;;;;;;;1.19;100.00;97427.00;5097296;28;24507;-76
2022/01/23 07:06:28;;;;;;;9.23;6.95;;;;;;;1.16;100.00;97430.41;5094540;28;24429;-78
2022/01/23 07:08:55;;;;;;;8.90;7.35;;;;;;;1.16;100.00;97427.00;5094632;28;25004;-77
2022/01/23 07:11:21;;;;;;;9.20;8.05;;;;;;;1.17;100.00;97437.19;5094418;28;24434;-76
2022/01/23 07:13:48;;;;;;;26.45;13.45;;;;;;;1.06;100.00;97433.78;5093622;28;24414;-77
2022/01/23 07:16:15;;;;;;;45.80;16.38;;;;;;;1.00;100.00;97438.03;5093961;28;24406;-77
2022/01/23 07:18:42;;;;;;;22.08;13.65;;;;;;;0.95;100.00;97438.88;5094477;28;24418;-77
2022/01/23 07:21:08;;;;;;;16.50;12.55;;;;;;;1.04;100.00;97438.06;5093798;28;24430;-78
2022/01/23 07:23:35;;;;;;;24.42;15.38;;;;;;;1.09;100.00;97443.16;5099308;28;24438;-78
2022/01/23 07:26:01;;;;;;;27.00;16.05;;;;;;;1.12;100.00;97438.06;5099640;28;24422;-78
2022/01/23 07:28:37;;;;;;;25.80;14.90;;;;;;;1.14;100.00;97454.19;5100002;28;24430;-78
2022/01/23 07:31:05;;;;;;;27.42;14.60;;;;;;;1.18;100.00;97446.53;5099044;28;24433;-77
2022/01/23 07:33:36;;;;;;;21.15;13.55;;;;;;;1.22;100.00;97449.94;5094102;28;24418;-77
2022/01/23 07:36:03;;;;;;;18.67;13.55;;;;;;;1.26;100.00;97458.47;5096428;28;24426;-78
2022/01/23 07:38:30;;;;;;;20.10;14.18;;;;;;;1.37;100.00;97455.09;5098856;28;24806;-78
2022/01/23 07:40:57;;;;;;;18.75;13.68;;;;;;;1.31;100.00;97451.69;5099569;28;24792;-77
2022/01/23 07:43:23;;;;;;;18.85;13.85;;;;;;;1.31;100.00;97454.22;5098929;28;24994;-77
2022/01/23 07:45:50;;;;;;;16.57;13.53;;;;;;;1.30;100.00;97450.84;5098732;28;24418;-77
2022/01/23 07:48:16;;;;;;;24.40;15.63;;;;;;;1.28;100.00;97451.66;5098738;28;24429;-77
2022/01/23 07:50:44;;;;;;;18.95;16.25;;;;;;;1.18;100.00;97446.53;5097418;28;24422;-77
2022/01/23 07:53:11;;;;;;;19.25;17.30;;;;;;;1.15;100.00;97453.34;5092948;28;24975;-77
2022/01/23 07:55:37;;;;;;;16.00;12.73;;;;;;;1.16;100.00;97455.06;5092972;28;24418;-77
2022/01/23 07:58:12;;;;;;;12.77;11.30;;;;;;;1.15;100.00;97449.13;5092812;28;24427;-78
2022/01/23 08:00:39;;;;;;;10.27;9.15;;;;;;;1.11;100.00;97456.75;5093178;28;24431;-77
2022/01/23 08:03:06;;;;;;;10.07;9.07;;;;;;;1.12;100.00;97459.31;5093040;28;24532;-76
2022/01/23 08:05:32;;;;;;;11.13;9.73;;;;;;;1.10;100.00;97462.72;5091720;28;24450;-77
2022/01/23 08:08:00;;;;;;;11.15;8.88;;;;;;;1.13;100.00;97471.22;5092568;28;24433;-77
2022/01/23 08:10:26;;;;;;;10.68;8.90;;;;;;;1.19;100.00;97475.50;5092424;28;24418;-77
2022/01/23 08:12:53;;;;;;;11.50;8.88;;;;;;;1.19;100.00;97471.25;5092458;28;24445;-77
2022/01/23 08:15:19;;;;;;;11.10;9.38;;;;;;;1.16;100.00;97473.78;5090256;28;24438;-77
2022/01/23 08:17:46;;;;;;;10.07;9.07;;;;;;;1.17;100.00;97483.13;5092833;28;24462;-77
2022/01/23 08:20:12;;;;;;;9.43;8.43;;;;;;;1.21;100.00;97487.38;5092588;28;24430;-77
2022/01/23 08:22:39;;;;;;;11.65;10.10;;;;;;;1.27;100.00;97489.13;5092907;28;24525;-77
2022/01/23 08:25:08;;;;;;;12.13;10.73;;;;;;;1.31;100.00;97483.16;5091684;28;24998;-77
2022/01/23 08:27:35;;;;;;;11.70;9.63;;;;;;;1.36;100.00;97484.00;5092206;28;24511;-78
2022/01/23 08:30:02;;;;;;;10.70;9.15;;;;;;;1.40;100.00;97490.81;5084046;28;25012;-78
2022/01/23 08:32:29;;;;;;;13.32;9.88;;;;;;;1.45;100.00;97484.03;5072100;28;24435;-78
2022/01/23 08:34:55;;;;;;;11.35;10.02;;;;;;;1.51;100.00;97478.06;5075307;28;24433;-78
2022/01/23 08:37:22;;;;;;;10.75;9.68;;;;;;;1.49;100.00;97484.88;5092385;28;24429;-78
2022/01/23 08:39:48;;;;;;;13.35;10.73;;;;;;;1.43;100.00;97482.31;5076736;28;24492;-78
2022/01/23 08:42:18;;;;;;;11.03;9.93;;;;;;;1.43;100.00;97488.25;5071405;28;24874;-78
2022/01/23 08:44:46;;;;;;;10.80;9.75;;;;;;;1.43;100.00;97484.88;5071746;28;25004;-78
2022/01/23 08:47:12;;;;;;;10.32;9.35;;;;;;;1.45;100.00;97484.03;5092080;28;24493;-78
2022/01/23 08:49:47;;;;;;;11.15;10.05;;;;;;;1.49;100.00;97495.09;5092272;28;24441;-77
2022/01/23 08:52:16;;;;;;;13.50;10.70;;;;;;;1.51;100.00;97492.53;5092186;28;24441;-77
2022/01/23 08:54:44;;;;;;;12.55;10.30;;;;;;;1.48;100.00;97493.38;5090633;28;24430;-76
2022/01/23 08:57:11;;;;;;;10.52;9.52;;;;;;;1.46;100.00;97495.09;5092268;28;24453;-77
2022/01/23 08:59:39;;;;;;;12.38;11.05;;;;;;;1.46;100.00;97492.53;5086621;28;24429;-77
2022/01/23 09:02:06;;;;;;;12.03;10.77;;;;;;;1.42;100.00;97491.69;5071858;28;24426;-76
2022/01/23 09:04:33;;;;;;;13.32;11.40;;;;;;;1.43;100.00;97482.31;5070870;28;24792;-75
2022/01/23 09:07:00;;;;;;;12.52;11.00;;;;;;;1.47;100.00;97480.63;5090739;28;24421;-76
2022/01/23 09:09:30;;;;;;;12.82;11.20;;;;;;;1.45;100.00;97480.63;5089914;28;24938;-76
2022/01/23 09:12:03;;;;;;;14.68;11.50;;;;;;;1.56;100.00;97483.16;5090592;28;24503;-76
2022/01/23 09:14:30;;;;;;;13.75;11.98;;;;;;;1.42;100.00;97472.97;5089907;28;24998;-75
2022/01/23 09:16:59;;;;;;;17.40;12.37;;;;;;;1.35;100.00;97467.00;5089730;28;24523;-76
2022/01/23 09:19:26;;;;;;;12.68;11.38;;;;;;;1.35;100.00;97468.69;5091276;28;24538;-76
2022/01/23 09:21:55;;;;;;;12.85;11.63;;;;;;;1.43;100.00;97467.84;5090359;28;24422;-76
2022/01/23 09:24:23;;;;;;;16.27;13.23;;;;;;;1.60;100.00;97472.97;5090576;28;24468;-77
2022/01/23 09:26:54;;;;;;;17.23;11.80;;;;;;;1.46;100.00;97477.22;5089962;28;24451;-75
2022/01/23 09:29:29;;;;;;;13.10;11.70;;;;;;;1.43;100.00;97470.38;5087130;28;24450;-76
2022/01/23 09:31:56;;;;;;;13.05;11.38;;;;;;;1.51;100.00;97467.00;5070446;28;24960;-76
2022/01/23 09:34:25;;;;;;;13.75;11.45;;;;;;;1.63;100.00;97461.88;5069628;28;24438;-76
2022/01/23 09:36:54;;;;;;;12.25;10.57;;;;;;;1.70;100.00;97461.88;5089504;28;24480;-76
2022/01/23 09:39:21;;;;;;;14.50;11.27;;;;;;;1.83;100.00;97470.38;5089235;28;24434;-76
2022/01/23 09:41:52;;;;;;;12.88;11.20;;;;;;;1.84;100.00;97466.13;5088927;28;24442;-76
2022/01/23 09:44:20;;;;;;;13.02;10.98;;;;;;;1.84;100.00;97471.22;5091918;28;24441;-76
2022/01/23 09:46:47;;;;;;;21.50;12.27;;;;;;;1.83;100.00;97466.97;5093547;28;24426;-76
2022/01/23 09:49:16;;;;;;;13.25;11.93;;;;;;;1.88;100.00;97478.03;5093979;28;24495;-76
2022/01/23 09:51:45;;;;;;;17.45;12.88;;;;;;;2.19;100.00;97473.75;5093991;28;24426;-76
2022/01/23 09:54:12;;;;;;;16.20;12.43;;;;;;;2.33;100.00;97463.44;5093525;28;24473;-76
2022/01/23 09:56:41;;;;;;;14.10;12.52;;;;;;;2.20;100.00;97467.75;5092734;28;24441;-76
2022/01/23 09:59:10;;;;;;;13.82;12.23;;;;;;;2.23;100.00;97467.75;5092589;28;24488;-76
2022/01/23 10:01:38;;;;;;;16.65;12.88;;;;;;;2.22;100.00;97462.63;5088831;28;24449;-76
2022/01/23 10:04:05;;;;;;;15.15;13.40;;;;;;;2.38;100.00;97464.31;5093212;28;24455;-76
2022/01/23 10:06:31;;;;;;;14.33;12.43;;;;;;;2.29;100.00;97469.44;5092763;28;24430;-76
2022/01/23 10:09:00;;;;;;;16.50;13.30;;;;;;;2.20;100.00;97466.91;5092589;28;24430;-76
2022/01/23 10:11:27;;;;;;;13.52;12.00;;;;;;;2.27;100.00;97469.44;5093213;28;24536;-76
2022/01/23 10:13:54;;;;;;;13.35;11.95;;;;;;;2.34;100.00;97473.69;5092903;28;24433;-76
2022/01/23 10:16:20;;;;;;;14.85;13.15;;;;;;;2.30;100.00;97461.78;5093111;28;24509;-77
2022/01/23 10:18:47;;;;;;;15.45;13.27;;;;;;;2.27;100.00;97463.50;5094614;28;24444;-76
2022/01/23 10:21:14;;;;;;;14.10;12.43;;;;;;;2.31;100.00;97472.84;5091088;28;24434;-77
2022/01/23 10:23:41;;;;;;;15.45;13.43;;;;;;;2.20;100.00;97462.66;5091256;28;24460;-77
2022/01/23 10:26:09;;;;;;;14.00;12.50;;;;;;;2.20;100.00;97469.47;5092833;28;24434;-76
2022/01/23 10:28:36;;;;;;;14.52;12.88;;;;;;;2.30;100.00;97471.13;5090739;28;24521;-76
2022/01/23 10:31:06;;;;;;;15.05;13.55;;;;;;;2.46;100.00;97477.91;5091658;28;24454;-77
2022/01/23 10:33:34;;;;;;;16.15;14.55;;;;;;;2.84;100.00;97479.44;5093510;28;24426;-77
2022/01/23 10:36:04;;;;;;;17.90;15.48;;;;;;;2.71;100.00;97476.09;5093307;28;24437;-76
2022/01/23 10:38:34;;;;;;;16.73;14.82;;;;;;;2.53;100.00;97473.63;5084413;28;24976;-77
2022/01/23 10:41:23;;;;;;;15.25;13.75;;;;;;;2.72;100.00;97475.25;5094485;28;24883;-77
2022/01/23 10:47:30;;;;;;;23.08;15.15;;;;;;;2.70;100.00;97470.97;5078600;28;24477;-76
2022/01/23 10:49:58;;;;;;;18.95;13.98;;;;;;;2.63;100.00;97473.59;5086002;28;24528;-77
2022/01/23 10:52:27;;;;;;;15.57;11.63;;;;;;;2.83;100.00;97463.25;5092846;28;24791;-75
2022/01/23 10:54:54;;;;;;;15.48;11.82;;;;;;;3.05;100.00;97463.97;5092816;28;25024;-76
2022/01/23 10:57:20;;;;;;;15.00;12.57;;;;;;;3.12;100.00;97457.97;5091233;28;24491;-76
2022/01/23 10:59:50;;;;;;;18.17;13.00;;;;;;;3.03;100.00;97454.59;5090475;28;24433;-77
2022/01/23 11:02:21;;;;;;;17.50;12.60;;;;;;;3.28;100.00;97455.28;5094236;28;24437;-75
2022/01/23 11:05:06;;;;;;;14.07;11.30;;;;;;;3.05;100.00;97458.00;5093127;28;24457;-75
2022/01/23 11:07:34;;;;;;;13.07;11.43;;;;;;;2.91;100.00;97452.97;5095068;28;24479;-76
2022/01/23 11:10:04;;;;;;;12.77;11.48;;;;;;;3.10;100.00;97454.56;5095252;28;24445;-76
2022/01/23 11:12:46;;;;;;;13.57;11.48;;;;;;;3.21;100.00;97459.59;5091019;28;24449;-77
2022/01/23 11:18:05;;;;;;;13.73;11.75;;;;;;;3.19;100.00;97457.91;5095578;28;24441;-77
2022/01/23 11:20:35;;;;;;;15.38;11.40;;;;;;;3.03;100.00;97452.03;5089617;28;24437;-76
2022/01/23 11:23:04;;;;;;;12.23;11.02;;;;;;;3.10;100.00;97456.25;5093951;28;24437;-77
2022/01/23 11:25:30;;;;;;;14.45;11.20;;;;;;;3.29;100.00;97454.44;5095625;28;24990;-77
2022/01/23 11:28:03;;;;;;;12.17;10.67;;;;;;;3.28;100.00;97443.34;5096026;28;24955;-76
2022/01/23 11:30:39;;;;;;;11.60;9.40;;;;;;;3.26;100.00;97437.38;5095954;28;24513;-76
2022/01/23 11:33:08;;;;;;;9.52;8.55;;;;;;;3.23;100.00;97434.84;5095951;28;25064;-77
2022/01/23 11:35:34;;;;;;;9.55;8.60;;;;;;;3.20;100.00;97439.16;5094631;28;24437;-76
2022/01/23 11:38:01;;;;;;;11.50;10.23;;;;;;;3.35;100.00;97446.72;5095331;28;24418;-77
2022/01/23 11:40:39;;;;;;;11.40;10.30;;;;;;;3.14;100.00;97451.09;5095148;28;24433;-77
2022/01/23 11:54:35;;;;;;;11.73;9.85;;;;;;;3.22;100.00;97430.56;5043021;28;25015;-77
2022/01/23 11:57:03;;;;;;;11.48;9.10;;;;;;;3.14;100.00;97429.78;5091736;28;24425;-77
2022/01/23 11:59:35;;;;;;;12.95;9.05;;;;;;;3.45;100.00;97422.72;5091029;28;24823;-77
2022/01/23 12:02:26;;;;;;;11.63;8.57;;;;;;;3.43;100.00;97421.88;5091527;28;24471;-78
2022/01/23 12:05:22;;;;;;;9.68;8.68;;;;;;;3.12;100.00;97414.44;5090853;28;21212;-78
2022/01/23 12:08:31;;;;;;;9.30;8.30;;;;;;;3.31;100.00;97414.31;5090524;28;24429;-78
2022/01/23 12:17:12;;;;;;;8.88;7.95;;;;;;;3.71;100.00;97403.69;5070842;28;24494;-76
2022/01/23 12:19:48;;;;;;;10.13;8.85;;;;;;;3.79;100.00;97405.34;5071053;28;25162;-76
2022/01/23 12:22:35;;;;;;;10.43;9.23;;;;;;;3.75;100.00;97407.94;5070889;28;24419;-76
2022/01/23 12:25:12;;;;;;;12.60;9.70;;;;;;;3.57;100.00;97403.84;5070260;28;25121;-76
2022/01/23 12:27:38;;;;;;;13.27;9.60;;;;;;;3.60;100.00;97403.81;5070835;28;24423;-76
2022/01/23 12:30:31;;;;;;;11.33;9.33;;;;;;;3.70;100.00;97404.56;5070189;28;25006;-77
2022/01/23 12:33:15;;;;;;;8.05;7.28;;;;;;;3.55;100.00;97398.72;5069142;28;24465;-77
2022/01/23 12:35:45;;;;;;;8.65;7.75;;;;;;;3.61;100.00;97397.81;5080392;28;24433;-77
2022/01/23 12:38:13;;;;;;;8.25;7.22;;;;;;;3.46;100.00;97390.28;5090626;28;24414;-77
2022/01/23 12:40:43;;;;;;;8.47;7.13;;;;;;;3.52;100.00;97391.09;5091087;28;24488;-77
2022/01/23 12:43:12;;;;;;;7.93;7.13;;;;;;;3.62;100.00;97402.06;5091362;28;24433;-76
2022/01/23 12:45:48;;;;;;;8.77;7.25;;;;;;;3.54;100.00;97397.03;5093977;28;24457;-77
2022/01/23 12:48:43;;;;;;;9.57;7.50;;;;;;;3.51;100.00;97386.81;5094591;28;25043;-77
2022/01/23 12:51:33;;;;;;;10.65;7.97;;;;;;;3.62;100.00;97390.09;5094436;28;24437;-77
2022/01/23 12:54:25;;;;;;;10.38;7.28;;;;;;;3.44;100.00;97389.44;5080438;28;24435;-77
2022/01/23 12:56:52;;;;;;;8.90;8.02;;;;;;;3.29;100.00;97386.13;5074555;28;24410;-77
2022/01/23 12:59:26;;;;;;;9.90;8.10;;;;;;;3.54;100.00;97381.66;5076701;28;24772;-77
2022/01/23 13:02:00;;;;;;;10.80;8.40;;;;;;;3.54;100.00;97384.22;5091194;28;24464;-76
2022/01/23 13:04:35;;;;;;;10.70;8.93;;;;;;;3.30;100.00;97389.53;5092308;28;24461;-76
2022/01/23 13:07:14;;;;;;;11.80;8.27;;;;;;;3.20;100.00;97382.81;5087776;28;24482;-76
2022/01/23 13:09:48;;;;;;;10.30;9.27;;;;;;;3.51;100.00;97391.94;5081379;28;25071;-77
2022/01/23 13:12:28;;;;;;;11.45;8.82;;;;;;;3.43;100.00;97380.91;5087091;28;24441;-75
2022/01/23 13:15:11;;;;;;;9.57;8.60;;;;;;;3.48;100.00;97380.84;5086314;28;24445;-76
2022/01/23 13:17:51;;;;;;;10.65;7.70;;;;;;;3.62;100.00;97382.44;5090290;28;24533;-77
2022/01/23 13:31:42;;;;;;;11.57;9.80;;;;;;;3.27;100.00;97375.06;5094145;28;24609;-77
2022/01/23 13:34:26;;;;;;;9.60;8.70;;;;;;;3.34;100.00;97374.16;5093941;28;24434;-76
2022/01/23 13:36:54;;;;;;;10.90;9.05;;;;;;;3.36;100.00;97377.53;5093784;28;24441;-76
2022/01/23 13:39:24;;;;;;;9.73;8.82;;;;;;;3.24;100.00;97369.13;5093667;28;24441;-76
2022/01/23 13:42:11;;;;;;;11.30;10.02;;;;;;;3.32;100.00;97368.19;5094155;28;24434;-77
2022/01/23 13:53:13;;;;;;;12.95;9.77;;;;;;;3.32;100.00;97357.09;5011845;28;24490;-76
2022/01/23 13:58:37;;;;;;;11.90;10.13;;;;;;;3.34;100.00;97358.78;5059736;28;24471;-76
2022/01/23 14:01:29;;;;;;;12.37;9.60;;;;;;;3.47;100.00;97351.00;5091591;28;24438;-76
2022/01/23 14:03:56;;;;;;;14.80;10.73;;;;;;;3.20;100.00;97352.94;5086996;28;24434;-77
2022/01/23 14:06:25;;;;;;;13.30;10.35;;;;;;;3.04;100.00;97346.22;5092437;28;24835;-77
2022/01/23 14:09:05;;;;;;;10.50;9.07;;;;;;;3.27;100.00;97343.50;5090551;28;24525;-77
2022/01/23 14:11:33;;;;;;;11.10;10.10;;;;;;;3.48;100.00;97350.97;5093238;28;24536;-77
2022/01/23 14:14:15;;;;;;;12.23;10.38;;;;;;;3.44;100.00;97351.00;5094029;28;24430;-77
2022/01/23 14:16:42;;;;;;;9.38;8.43;;;;;;;3.26;100.00;97358.00;5095681;28;24429;-76
2022/01/23 14:19:17;;;;;;;13.57;11.20;;;;;;;3.10;100.00;97353.88;5093828;28;24422;-77